Terminal Aerodrome Forecast
Issued by NWS

Home | Current Version | Previous Version | Graphics & Text | Print | Product List | Glossary On
Versions: 1 2 3 4 5 6 7 8 9 10 11 12 13 14 15 16 17 18 19 20
213
FTUS43 KMPX 302342
TAFRNH
TAF
KRNH 302342Z 3100/3124 21005KT P6SM BKN110
     FM310600 13008KT P6SM VCSH BKN050
      TEMPO 3108/3111 4SM TSRA OVC045CB
     FM311100 13008KT P6SM -SHRA VCTS SCT025CB OVC045
     FM311500 16010KT P6SM VCSH BKN040=

USA.gov is the U.S. government's official web portal to all federal, state and local government web resources and services.